CheckWX is a tool to help pilots better visualize weather data.  It is not intended as a substitute for an official pre-flight weather briefing.

17:59:06 UTC

ENAT METAR
Alta Airport
Alta, Norway
Current

1 hour ago

ENAT 171650Z 07010KT 9999 -SG SCT024 BKN040 M05/M09 Q1014 RMK WIND 700FT /////KT
Observed
Feb-17 @ 16:50 UTC
Wind
  • 070° at 10 KTS
Visibility
10,000+ meters
Flight Rules
VFR
Conditions
Light Snow grains
Cloud Levels
  • Scattered at 2,400' AGL
  • Broken at 4,000' AGL
Temperature
-5°C / 23°F
Dewpoint
-9°C / 16°F
Humidity
74%
Altimeter
29.94" Hg
Pressure
1013.92 hPa
Previous

2 hours ago

ENAT 171550Z 08008KT 8000 -SN VCSH SCT013 BKN024 M05/M07 Q1014 RMK WIND 700FT /////KT
Observed
Feb-17 @ 15:50 UTC
Wind
  • 080° at 8 KTS
Visibility
7,998 meters
Flight Rules
MVFR
Conditions
Light Snow
Cloud Levels
  • Scattered at 1,300' AGL
  • Broken at 2,400' AGL
Temperature
-5°C / 23°F
Dewpoint
-7°C / 19°F
Humidity
86%
Altimeter
29.94" Hg
Pressure
1013.92 hPa
Previous

3 hours ago

ENAT 171450Z 20004KT 5000 -SHSN VV011 M04/M05 Q1013 RMK WIND 700FT /////KT
Observed
Feb-17 @ 14:50 UTC
Wind
  • 200° at 4 KTS
Visibility
5,005 meters
Flight Rules
LIFR
Conditions
Light Snow
Cloud Levels
  • Vertical visibility at 1,100' AGL
Temperature
-4°C / 25°F
Dewpoint
-5°C / 23°F
Humidity
93%
Altimeter
29.91" Hg
Pressure
1012.92 hPa